Time;durP1;ratioP1;P1;durP2;ratioP2;P2;SDS_P1;SDS_P2;PMS_P1;PMS_P2;Temp;Humidity;BMP_temperature;BMP_pressure;BME280_temperature;BME280_humidity;BME280_pressure;Samples;Min_cycle;Max_cycle;Signal;HPM_P1;HPM_P2
2022/01/23 00:02:17;;;;;;;26.00;16.40;;;;;;;5.39;100.00;103494.34;2601909;54;20072;31
2022/01/23 00:20:35;;;;;;;29.33;19.70;;;;;;;5.43;100.00;103495.13;2601642;54;20038;31
2022/01/23 00:31:15;;;;;;;31.65;20.30;;;;;;;5.30;100.00;103485.66;2602457;47;19953;31
2022/01/23 00:39:08;;;;;;;31.20;18.55;;;;;;;5.36;100.00;103483.75;2601352;54;20034;31
2022/01/23 00:41:43;;;;;;;29.00;19.45;;;;;;;5.47;100.00;103490.59;2606999;39;20897;31
2022/01/23 00:52:08;;;;;;;31.55;20.98;;;;;;;5.25;100.00;103491.97;2601363;54;21194;31
2022/01/23 00:59:51;;;;;;;27.58;20.20;;;;;;;5.33;100.00;103494.50;2602488;54;20391;31
2022/01/23 01:07:35;;;;;;;26.60;19.33;;;;;;;5.35;100.00;103489.13;2602449;54;21151;31
2022/01/23 01:10:22;;;;;;;28.30;19.88;;;;;;;5.31;100.00;103495.44;2607219;39;20366;31
2022/01/23 01:13:00;;;;;;;27.00;20.50;;;;;;;5.29;100.00;103494.59;2602970;54;20503;31
2022/01/23 01:34:35;;;;;;;29.10;20.23;;;;;;;5.52;100.00;103462.88;2607075;39;20543;31
2022/01/23 01:37:12;;;;;;;26.88;20.08;;;;;;;5.35;100.00;103451.72;2603209;46;21455;31
2022/01/23 01:45:04;;;;;;;29.15;22.15;;;;;;;5.32;100.00;103465.16;2606879;39;20331;31
2022/01/23 01:52:46;;;;;;;27.52;21.65;;;;;;;5.37;100.00;103473.91;2602430;54;21516;31
2022/01/23 01:55:26;;;;;;;32.85;23.63;;;;;;;5.42;100.00;103461.34;2608852;39;20861;31
2022/01/23 02:08:28;;;;;;;29.33;20.98;;;;;;;5.48;100.00;103481.66;2602603;54;21704;31
2022/01/23 02:13:43;;;;;;;24.55;19.10;;;;;;;5.47;100.00;103486.13;2602237;54;20338;31
2022/01/23 02:54:40;;;;;;;24.60;18.80;;;;;;;5.48;100.00;103490.56;2601612;54;20035;31
2022/01/23 02:59:51;;;;;;;29.95;20.33;;;;;;;5.47;100.00;103496.81;2602268;54;20752;31
2022/01/23 03:02:35;;;;;;;25.60;19.40;;;;;;;5.59;100.00;103491.19;2602569;47;20779;31
2022/01/23 03:34:31;;;;;;;26.90;17.75;;;;;;;5.59;100.00;103491.19;2601446;54;20375;31
2022/01/23 03:39:41;;;;;;;23.40;16.75;;;;;;;5.50;100.00;103491.41;2601553;54;20086;31
2022/01/23 03:42:17;;;;;;;25.10;16.85;;;;;;;5.60;100.00;103492.06;2607194;39;20344;31
2022/01/23 03:45:13;;;;;;;24.15;16.75;;;;;;;5.64;100.00;103498.19;2602492;47;20387;31
2022/01/23 03:53:05;;;;;;;22.10;16.23;;;;;;;5.61;100.00;103501.84;2601309;54;20370;31
2022/01/23 03:55:42;;;;;;;26.47;17.33;;;;;;;5.49;100.00;103499.44;2601921;54;20419;31
2022/01/23 04:03:25;;;;;;;30.87;16.13;;;;;;;5.78;100.00;103506.72;2601521;54;20069;31
2022/01/23 04:06:00;;;;;;;32.40;17.10;;;;;;;5.68;100.00;103505.22;2602482;54;21248;31
2022/01/23 04:32:45;;;;;;;31.10;15.10;;;;;;;5.61;100.00;103516.06;2602353;54;20456;31
2022/01/23 04:59:45;;;;;;;54.30;17.70;;;;;;;5.19;100.00;103518.84;2602126;54;20801;31
2022/01/23 05:03:06;;;;;;;52.50;19.05;;;;;;;5.17;100.00;103522.47;2607818;39;20670;31
2022/01/23 05:05:21;;;;;;;41.77;16.03;;;;;;;5.22;100.00;103528.56;2608181;39;20310;31
2022/01/23 05:10:41;;;;;;;66.20;19.58;;;;;;;5.21;100.00;103522.38;2601658;54;20445;31
2022/01/23 05:13:16;;;;;;;93.72;22.38;;;;;;;5.14;100.00;103522.53;2602909;54;21359;31
2022/01/23 05:18:35;;;;;;;76.80;21.30;;;;;;;5.07;100.00;103509.31;2602013;54;20788;31
2022/01/23 05:21:30;;;;;;;92.85;23.08;;;;;;;5.20;100.00;103509.06;2602113;54;20049;31
2022/01/23 05:24:06;;;;;;;56.70;20.38;;;;;;;5.05;100.00;103505.81;2603139;47;20463;31
2022/01/23 05:31:58;;;;;;;64.00;19.45;;;;;;;5.00;100.00;103512.16;2601813;54;20417;31
2022/01/23 05:37:07;;;;;;;66.55;21.17;;;;;;;5.02;100.00;103510.31;2602238;54;20062;31
2022/01/23 05:39:42;;;;;;;55.47;20.50;;;;;;;4.95;100.00;103508.72;2614250;39;20938;31
2022/01/23 05:42:18;;;;;;;40.72;18.73;;;;;;;5.00;100.00;103509.50;2611482;39;20333;31
2022/01/23 05:55:17;;;;;;;46.05;19.65;;;;;;;5.22;100.00;103518.75;2601748;54;20034;31
2022/01/23 06:00:27;;;;;;;38.30;17.75;;;;;;;4.98;100.00;103514.00;2609652;39;20260;31
2022/01/23 06:05:36;;;;;;;42.00;17.23;;;;;;;4.92;100.00;103531.03;2601983;54;20465;31
2022/01/23 06:10:56;;;;;;;41.50;17.70;;;;;;;4.94;100.00;103523.00;2607642;39;20598;31
2022/01/23 06:16:07;;;;;;;38.15;17.25;;;;;;;5.01;100.00;103520.13;2602386;54;20801;31
2022/01/23 06:21:29;;;;;;;40.35;16.90;;;;;;;5.20;100.00;103520.59;2601872;54;20379;31
2022/01/23 06:26:44;;;;;;;41.65;17.73;;;;;;;4.91;100.00;103518.59;2601721;54;20034;31
2022/01/23 06:34:25;;;;;;;41.50;17.05;;;;;;;4.78;100.00;103531.31;2601746;54;21196;31
2022/01/23 06:42:09;;;;;;;41.92;17.45;;;;;;;4.94;100.00;103528.31;2602157;54;21168;31
2022/01/23 06:47:19;;;;;;;38.35;17.05;;;;;;;4.91;100.00;103531.94;2602292;54;20098;31
2022/01/23 06:49:55;;;;;;;38.75;17.85;;;;;;;5.12;100.00;103527.91;2602435;54;20046;31
2022/01/23 07:00:20;;;;;;;35.63;15.83;;;;;;;4.77;100.00;103542.00;2601243;54;20042;31
2022/01/23 07:08:03;;;;;;;30.55;14.02;;;;;;;5.10;100.00;103559.09;2601727;54;20118;31
2022/01/23 07:13:12;;;;;;;35.97;15.53;;;;;;;4.95;100.00;103552.31;2601669;54;20499;31
2022/01/23 07:15:52;;;;;;;32.75;14.70;;;;;;;4.94;100.00;103560.34;2604952;39;20331;31
2022/01/23 07:21:02;;;;;;;37.05;15.07;;;;;;;4.79;100.00;103556.22;2601686;54;20046;31
2022/01/23 07:23:39;;;;;;;31.88;14.18;;;;;;;4.88;100.00;103564.03;2602606;47;20054;31
2022/01/23 07:36:50;;;;;;;25.90;13.68;;;;;;;5.15;100.00;103570.53;2601403;54;21248;31
2022/01/23 07:39:26;;;;;;;25.65;12.70;;;;;;;5.22;100.00;103577.50;2601902;54;20074;31
2022/01/23 07:42:02;;;;;;;25.02;12.88;;;;;;;5.07;100.00;103576.06;2607296;39;20338;31
2022/01/23 07:49:46;;;;;;;28.05;13.35;;;;;;;4.99;100.00;103579.81;2601959;54;21882;31
2022/01/23 07:52:26;;;;;;;21.75;11.90;;;;;;;5.04;100.00;103583.25;2601809;47;20382;31
2022/01/23 07:55:02;;;;;;;21.85;10.88;;;;;;;4.90;100.00;103587.09;2605139;39;20356;31
2022/01/23 08:02:45;;;;;;;21.90;11.60;;;;;;;4.98;100.00;103591.41;2604572;39;20562;31
2022/01/23 08:10:32;;;;;;;16.58;9.93;;;;;;;5.20;100.00;103597.16;2601565;54;20234;31
2022/01/23 08:15:40;;;;;;;15.00;9.85;;;;;;;5.26;100.00;103599.69;2610928;31;20987;31
2022/01/23 08:18:19;;;;;;;15.00;9.75;;;;;;;5.39;100.00;103600.31;2602434;54;20069;31
2022/01/23 08:23:38;;;;;;;;;;;;;;;5.39;100.00;103597.63;2601221;54;20035;31
2022/01/23 08:26:16;;;;;;;19.05;10.18;;;;;;;5.43;100.00;103604.63;2602138;54;19969;31
2022/01/23 08:34:05;;;;;;;12.27;8.57;;;;;;;5.44;100.00;103611.75;2601360;54;20047;31
2022/01/23 08:41:53;;;;;;;15.70;9.88;;;;;;;5.48;100.00;103613.44;2601944;54;21115;31
2022/01/23 08:44:30;;;;;;;16.48;10.15;;;;;;;5.61;100.00;103609.56;2601389;47;20042;31
2022/01/23 08:47:08;;;;;;;16.47;11.03;;;;;;;5.69;100.00;103603.16;2602249;54;20046;31
2022/01/23 08:54:57;;;;;;;16.50;10.30;;;;;;;5.76;100.00;103615.47;2600798;54;20046;31
2022/01/23 09:00:10;;;;;;;18.08;11.25;;;;;;;5.63;100.00;103612.22;2601312;54;20060;31
2022/01/23 09:05:20;;;;;;;20.95;12.35;;;;;;;5.75;100.00;103608.38;2601238;54;20042;31
2022/01/23 09:10:39;;;;;;;19.30;12.15;;;;;;;5.51;100.00;103616.03;2601405;54;21185;31
2022/01/23 09:15:53;;;;;;;19.25;12.40;;;;;;;5.66;100.00;103609.47;2602008;54;21129;31
2022/01/23 09:23:35;;;;;;;18.00;11.98;;;;;;;6.10;100.00;103625.38;2601996;54;20117;31
2022/01/23 09:26:15;;;;;;;20.77;13.48;;;;;;;5.96;100.00;103621.22;2602862;54;20394;31
2022/01/23 09:34:08;;;;;;;20.58;12.93;;;;;;;5.81;100.00;103624.25;2602131;54;21631;31
2022/01/23 09:36:45;;;;;;;22.13;13.13;;;;;;;6.04;100.00;103630.88;2620804;36;20390;31
2022/01/23 09:42:00;;;;;;;21.67;13.48;;;;;;;5.80;100.00;103638.53;2607577;39;21231;31
2022/01/23 09:44:40;;;;;;;22.55;13.60;;;;;;;5.76;100.00;103645.75;2602128;54;20374;31
2022/01/23 09:47:19;;;;;;;21.10;14.15;;;;;;;6.07;100.00;103641.50;2605110;39;20299;31
2022/01/23 09:50:03;;;;;;;20.90;14.20;;;;;;;6.19;100.00;103641.16;2605150;39;20633;31
2022/01/23 09:52:41;;;;;;;22.20;13.40;;;;;;;6.09;100.00;103636.97;2620787;36;20050;31
2022/01/23 09:55:19;;;;;;;18.15;12.15;;;;;;;6.20;100.00;103642.94;2602993;54;21066;31
2022/01/23 10:03:11;;;;;;;21.30;13.43;;;;;;;5.99;100.00;103635.44;2602050;54;21642;31
2022/01/23 10:08:24;;;;;;;23.05;14.23;;;;;;;6.14;100.00;103643.09;2601832;54;20386;31
2022/01/23 10:16:07;;;;;;;20.95;14.20;;;;;;;6.27;100.00;103644.53;2601524;54;20498;31
2022/01/23 10:18:43;;;;;;;22.85;14.88;;;;;;;6.23;100.00;103647.34;2602558;54;20050;31
2022/01/23 10:23:54;;;;;;;22.00;15.15;;;;;;;6.19;100.00;103645.66;2608965;39;20322;31
2022/01/23 10:29:20;;;;;;;18.60;13.45;;;;;;;6.41;100.00;103640.63;2602391;54;20415;31
2022/01/23 10:37:14;;;;;;;20.60;13.88;;;;;;;6.21;100.00;103638.47;2601522;54;21636;31
2022/01/23 10:47:59;;;;;;;19.57;13.97;;;;;;;6.86;100.00;103642.97;2610930;31;20480;31
2022/01/23 10:55:43;;;;;;;18.15;12.60;;;;;;;6.80;100.00;103627.06;2602135;54;20424;31
2022/01/23 10:58:27;;;;;;;16.27;11.80;;;;;;;6.69;100.00;103624.69;2602212;47;20515;31
2022/01/23 11:01:10;;;;;;;16.10;12.30;;;;;;;6.89;100.00;103629.50;2602822;47;20467;31
2022/01/23 11:09:06;;;;;;;18.02;12.82;;;;;;;6.79;100.00;103614.63;2601980;54;21586;31
2022/01/23 11:11:44;;;;;;;16.73;12.52;;;;;;;6.76;100.00;103615.56;2601985;47;20533;31
2022/01/23 11:24:44;;;;;;;18.90;12.95;;;;;;;6.55;100.00;103611.72;2601570;54;21660;31
2022/01/23 11:27:22;;;;;;;16.15;12.25;;;;;;;6.70;100.00;103621.09;2602276;54;21634;31
2022/01/23 11:32:36;;;;;;;16.05;12.38;;;;;;;6.82;100.00;103606.50;2601722;54;20044;31
2022/01/23 11:53:55;;;;;;;13.90;11.30;;;;;;;6.64;100.00;103595.38;2601453;54;20061;31
2022/01/23 12:04:21;;;;;;;17.65;11.63;;;;;;;6.74;100.00;103606.69;2602003;54;21282;31
2022/01/23 12:07:14;;;;;;;16.17;11.90;;;;;;;6.74;100.00;103600.47;2607477;39;20279;31
2022/01/23 12:20:36;;;;;;;13.68;10.10;;;;;;;6.85;100.00;103593.03;2601418;54;20491;31
2022/01/23 12:23:18;;;;;;;13.73;10.98;;;;;;;6.77;100.00;103589.69;2602100;54;20449;31
2022/01/23 12:31:22;;;;;;;14.90;9.60;;;;;;;7.02;100.00;103573.75;2601709;54;20070;31
2022/01/23 12:41:54;;;;;;;12.45;8.40;;;;;;;7.19;100.00;103555.38;2610420;31;20428;31
2022/01/23 12:44:35;;;;;;;12.70;8.80;;;;;;;7.08;100.00;103551.28;2602404;47;20042;31
2022/01/23 12:52:25;;;;;;;12.52;8.98;;;;;;;6.83;100.00;103555.59;2602174;54;21122;31
2022/01/23 12:55:02;;;;;;;9.10;6.95;;;;;;;6.83;100.00;103549.34;2602359;47;20046;31
2022/01/23 12:57:42;;;;;;;7.03;5.25;;;;;;;6.80;100.00;103550.31;2608040;39;20290;31
2022/01/23 13:00:24;;;;;;;6.97;5.18;;;;;;;6.95;100.00;103546.31;2602848;54;20407;31
2022/01/23 13:03:03;;;;;;;7.75;5.10;;;;;;;7.16;100.00;103549.25;2602509;47;20378;31
2022/01/23 13:05:39;;;;;;;5.97;4.60;;;;;;;7.23;100.00;103539.22;2602722;54;20412;31
2022/01/23 13:08:23;;;;;;;5.82;4.10;;;;;;;7.14;100.00;103529.66;2603114;54;20347;31
2022/01/23 13:13:51;;;;;;;;;;;;;;;7.10;100.00;103523.53;2607281;39;20348;31
2022/01/23 13:16:38;;;;;;;5.22;4.40;;;;;;;7.10;100.00;103526.22;2602528;46;20001;31
2022/01/23 13:32:58;;;;;;;;;;;;;;;7.11;100.00;103536.00;2602041;54;20797;31
2022/01/23 13:35:42;;;;;;;8.55;6.30;;;;;;;7.13;100.00;103527.94;2602900;54;19968;31
2022/01/23 13:52:09;;;;;;;4.65;3.40;;;;;;;6.79;100.00;103537.00;2602944;46;20025;31
2022/01/23 14:02:25;;;;;;;2.95;2.40;;;;;;;6.68;100.00;103534.59;2607076;39;21666;31
2022/01/23 14:05:07;;;;;;;3.30;2.38;;;;;;;6.71;100.00;103541.69;2602926;54;20417;31
2022/01/23 14:07:48;;;;;;;3.15;2.25;;;;;;;6.76;100.00;103539.75;2602804;54;20061;31
2022/01/23 14:15:44;;;;;;;3.92;2.40;;;;;;;6.73;100.00;103529.13;2601799;54;21245;31
2022/01/23 14:20:58;;;;;;;3.67;2.40;;;;;;;6.76;100.00;103523.69;2602227;54;20129;31
2022/01/23 14:23:36;;;;;;;3.53;2.60;;;;;;;6.76;100.00;103526.38;2603171;47;21388;31
2022/01/23 14:34:00;;;;;;;3.17;2.83;;;;;;;6.66;100.00;103529.31;2601942;54;21550;31
2022/01/23 14:36:38;;;;;;;3.25;2.63;;;;;;;6.89;100.00;103530.44;2603144;54;21418;31
2022/01/23 14:39:18;;;;;;;2.92;2.33;;;;;;;6.69;100.00;103527.47;2602488;46;20118;31
2022/01/23 14:41:55;;;;;;;2.70;2.30;;;;;;;6.79;100.00;103528.97;2602568;54;20042;31
2022/01/23 14:47:04;;;;;;;4.25;2.20;;;;;;;6.68;100.00;103537.28;2602156;54;20335;31
2022/01/23 14:49:45;;;;;;;3.45;2.20;;;;;;;6.64;100.00;103535.63;2602932;47;20069;31
2022/01/23 15:00:13;;;;;;;3.73;2.80;;;;;;;6.65;100.00;103534.69;2601576;54;20046;31
2022/01/23 15:08:00;;;;;;;3.33;2.60;;;;;;;6.57;100.00;103539.41;2602530;54;20648;31
2022/01/23 15:10:37;;;;;;;4.20;2.80;;;;;;;6.53;100.00;103537.75;2620737;36;20396;31
2022/01/23 15:13:14;;;;;;;3.97;3.10;;;;;;;6.39;100.00;103522.97;2602171;54;20262;31
2022/01/23 15:15:54;;;;;;;3.85;2.72;;;;;;;6.52;100.00;103531.50;2607630;39;20500;31
2022/01/23 15:18:31;;;;;;;3.57;2.73;;;;;;;6.51;100.00;103535.13;2602687;47;20046;31
2022/01/23 15:26:20;;;;;;;3.47;2.80;;;;;;;6.34;100.00;103540.06;2601761;54;20042;31
2022/01/23 15:28:58;;;;;;;5.45;2.80;;;;;;;6.36;100.00;103544.44;2606983;39;21606;31
2022/01/23 15:34:10;;;;;;;4.70;2.97;;;;;;;6.45;100.00;103548.66;2602080;54;21694;31
2022/01/23 15:39:19;;;;;;;4.50;3.20;;;;;;;6.35;100.00;103544.50;2602090;54;20106;31
2022/01/23 15:41:56;;;;;;;5.88;3.60;;;;;;;6.32;100.00;103535.63;2602188;46;21265;31
2022/01/23 15:44:32;;;;;;;4.70;3.40;;;;;;;6.28;100.00;103539.28;2602259;54;20793;31
2022/01/23 15:47:09;;;;;;;5.07;2.90;;;;;;;6.30;100.00;103533.91;2602939;54;20407;31
2022/01/23 15:55:01;;;;;;;4.50;3.33;;;;;;;6.20;100.00;103533.28;2601955;54;20034;31
2022/01/23 16:00:13;;;;;;;4.70;2.90;;;;;;;6.16;100.00;103539.63;2602175;54;20090;31
2022/01/23 16:02:49;;;;;;;5.57;3.30;;;;;;;6.21;100.00;103536.84;2602579;54;21339;31
2022/01/23 16:05:26;;;;;;;6.43;4.97;;;;;;;6.15;100.00;103537.88;2601867;54;20102;31
2022/01/23 16:08:02;;;;;;;10.25;8.80;;;;;;;6.12;100.00;103535.28;2602183;47;20326;31
2022/01/23 16:13:21;;;;;;;17.98;14.93;;;;;;;6.33;100.00;103531.16;2601877;54;20037;31
2022/01/23 16:16:00;;;;;;;29.13;21.27;;;;;;;6.08;100.00;103520.22;2611078;39;20293;31
2022/01/23 16:23:52;;;;;;;9.35;6.10;;;;;;;6.27;100.00;103529.53;2602134;54;20355;31
2022/01/23 16:29:02;;;;;;;8.15;4.72;;;;;;;6.34;100.00;103532.03;2602698;54;20430;31
2022/01/23 16:31:40;;;;;;;6.38;3.60;;;;;;;6.29;100.00;103541.06;2611142;39;20289;31
2022/01/23 16:34:17;;;;;;;4.00;3.00;;;;;;;6.31;100.00;103536.53;2602800;47;20038;31
2022/01/23 16:36:53;;;;;;;4.40;3.22;;;;;;;6.24;100.00;103537.63;2603619;54;20034;31
2022/01/23 16:42:02;;;;;;;3.65;2.80;;;;;;;6.09;100.00;103548.72;2603179;54;21327;31
2022/01/23 16:47:15;;;;;;;4.73;3.30;;;;;;;6.22;100.00;103551.97;2602895;54;20481;31
2022/01/23 16:49:53;;;;;;;5.10;3.75;;;;;;;6.36;100.00;103546.22;2612047;39;20335;31
2022/01/23 16:57:41;;;;;;;;;;;;;;;6.27;100.00;103553.59;2602464;54;20497;31
2022/01/23 17:00:17;;;;;;;3.97;3.15;;;;;;;6.09;100.00;103554.09;2603762;47;21335;31
2022/01/23 17:05:30;;;;;;;5.33;2.93;;;;;;;5.97;100.00;103561.50;2602970;54;20695;31
2022/01/23 17:08:07;;;;;;;4.95;3.10;;;;;;;6.01;100.00;103556.06;2603356;54;20390;31
2022/01/23 17:15:55;;;;;;;6.35;3.85;;;;;;;6.02;100.00;103569.44;2603389;54;21310;31
2022/01/23 17:21:07;;;;;;;7.00;3.95;;;;;;;5.78;100.00;103557.50;2602724;54;20379;31
2022/01/23 17:26:17;;;;;;;4.45;3.22;;;;;;;5.78;100.00;103560.19;2603006;54;20270;31
2022/01/23 17:28:54;;;;;;;7.85;4.75;;;;;;;5.87;100.00;103559.06;2612073;39;20324;31
2022/01/23 17:37:03;;;;;;;3.97;3.13;;;;;;;5.61;100.00;103556.13;2610394;31;22229;31
2022/01/23 17:39:41;;;;;;;4.03;3.00;;;;;;;5.72;100.00;103549.66;2608373;39;20298;31
2022/01/23 17:44:52;;;;;;;4.75;3.35;;;;;;;5.67;100.00;103547.09;2602778;54;20429;31
2022/01/23 17:47:56;;;;;;;4.95;3.60;;;;;;;5.68;100.00;103547.97;2602853;47;20038;31
2022/01/23 17:55:40;;;;;;;4.72;3.35;;;;;;;5.73;100.00;103546.06;2602735;54;20340;31
2022/01/23 17:58:17;;;;;;;5.50;3.65;;;;;;;5.61;100.00;103545.44;2603152;47;20046;31
2022/01/23 18:00:55;;;;;;;5.97;3.72;;;;;;;5.59;100.00;103539.28;2602877;47;20114;31
2022/01/23 18:03:33;;;;;;;5.32;4.40;;;;;;;5.52;100.00;103544.78;2603254;47;20046;31
2022/01/23 18:19:01;;;;;;;;;;;;;;;5.54;100.00;103540.31;2602661;54;20839;31
2022/01/23 18:21:40;;;;;;;5.30;3.45;;;;;;;5.57;100.00;103543.75;2602773;54;19954;31
2022/01/23 18:24:17;;;;;;;5.28;4.00;;;;;;;5.61;100.00;103544.59;2602847;54;20615;31
2022/01/23 18:26:53;;;;;;;7.75;4.78;;;;;;;5.51;100.00;103540.38;2602904;54;20029;31
2022/01/23 18:29:29;;;;;;;8.20;4.80;;;;;;;5.47;100.00;103547.56;2602766;54;20077;31
2022/01/23 18:32:07;;;;;;;6.45;4.28;;;;;;;5.56;100.00;103550.00;2603306;47;20389;31
2022/01/23 18:39:58;;;;;;;6.38;4.45;;;;;;;5.52;100.00;103553.69;2602507;54;20421;31
2022/01/23 18:47:42;;;;;;;6.40;3.78;;;;;;;5.39;100.00;103545.09;2602663;54;20038;31
2022/01/23 18:55:30;;;;;;;7.13;4.07;;;;;;;5.55;100.00;103556.28;2602731;54;21285;31
2022/01/23 19:03:23;;;;;;;5.90;4.10;;;;;;;5.62;100.00;103548.97;2602770;54;20386;31
2022/01/23 19:06:05;;;;;;;6.00;3.60;;;;;;;5.56;100.00;103546.47;2603360;47;20266;31
2022/01/23 19:13:57;;;;;;;6.20;4.22;;;;;;;5.60;100.00;103535.66;2602396;54;21634;31
2022/01/23 19:19:11;;;;;;;8.25;5.10;;;;;;;5.71;100.00;103534.53;2602769;54;20034;31
2022/01/23 19:21:48;;;;;;;7.43;4.53;;;;;;;5.59;100.00;103539.28;2603112;47;20065;31
2022/01/23 19:29:39;;;;;;;;;;;;;;;5.39;100.00;103537.06;2611187;39;20665;31
2022/01/23 19:32:18;;;;;;;7.25;4.75;;;;;;;5.47;100.00;103533.34;2602855;46;19954;31
2022/01/23 19:34:53;;;;;;;7.00;4.55;;;;;;;5.41;100.00;103534.38;2602686;47;21253;31
2022/01/23 19:40:05;;;;;;;7.03;5.13;;;;;;;5.24;100.00;103524.97;2602553;54;20436;31
2022/01/23 19:42:56;;;;;;;7.70;5.25;;;;;;;5.17;100.00;103526.00;2634757;36;20914;31
2022/01/23 19:50:47;;;;;;;;;;;;;;;5.49;100.00;103526.16;2603986;54;19954;31
2022/01/23 19:53:26;;;;;;;8.27;6.13;;;;;;;5.53;100.00;103519.84;2604282;46;19946;31
2022/01/23 19:58:36;;;;;;;8.00;4.72;;;;;;;5.36;100.00;103513.13;2610366;39;21445;31
2022/01/23 20:19:25;;;;;;;9.45;6.25;;;;;;;5.16;100.00;103504.69;2602162;54;20450;31
2022/01/23 20:22:02;;;;;;;8.60;6.35;;;;;;;5.24;100.00;103508.03;2602756;47;21268;31
2022/01/23 20:27:14;;;;;;;10.95;6.55;;;;;;;5.17;100.00;103512.66;2602044;54;20097;31
2022/01/23 20:32:23;;;;;;;11.40;7.45;;;;;;;5.06;100.00;103507.59;2602203;54;20093;31
2022/01/23 20:40:04;;;;;;;7.90;6.00;;;;;;;5.19;100.00;103507.28;2602232;54;20019;31
2022/01/23 20:45:19;;;;;;;8.80;5.87;;;;;;;5.34;100.00;103514.06;2602220;54;20713;31
2022/01/23 20:55:39;;;;;;;10.50;6.25;;;;;;;5.33;100.00;103509.63;2610522;39;20298;31
2022/01/23 20:58:17;;;;;;;10.80;7.00;;;;;;;5.13;100.00;103502.97;2602436;47;20045;31
2022/01/23 21:00:55;;;;;;;9.90;6.75;;;;;;;5.14;100.00;103502.06;2615503;39;21063;31
2022/01/23 21:03:31;;;;;;;9.60;6.10;;;;;;;5.18;100.00;103495.75;2602403;47;20065;31
2022/01/23 21:06:06;;;;;;;9.68;6.57;;;;;;;5.10;100.00;103492.34;2602722;47;21161;31
2022/01/23 21:40:25;;;;;;;10.88;6.53;;;;;;;5.21;100.00;103501.00;2601585;54;20121;31
2022/01/23 21:45:34;;;;;;;8.95;6.50;;;;;;;5.14;100.00;103499.38;2600295;54;20030;31
2022/01/23 21:53:33;;;;;;;11.17;7.00;;;;;;;5.08;100.00;103495.06;2601035;54;21013;31
2022/01/23 21:58:45;;;;;;;11.95;7.45;;;;;;;4.99;100.00;103497.06;2600355;54;20942;31
2022/01/23 22:01:21;;;;;;;11.77;8.07;;;;;;;4.93;100.00;103497.19;2601113;54;21272;31
2022/01/23 22:12:03;;;;;;;11.60;8.07;;;;;;;4.89;100.00;103505.28;2599979;54;20832;31
2022/01/23 22:23:11;;;;;;;12.50;8.10;;;;;;;5.00;100.00;103509.50;2599971;54;20796;31
2022/01/23 22:28:23;;;;;;;14.10;9.00;;;;;;;4.92;100.00;103515.00;2600758;54;21164;31
2022/01/23 22:31:01;;;;;;;12.43;8.75;;;;;;;4.90;100.00;103517.72;2600385;47;21247;31
2022/01/23 22:33:37;;;;;;;14.07;9.18;;;;;;;5.05;100.00;103515.59;2601871;54;20489;31
2022/01/23 22:36:22;;;;;;;12.02;8.00;;;;;;;5.14;100.00;103510.06;2602775;46;20462;31
2022/01/23 22:39:00;;;;;;;11.80;8.03;;;;;;;5.00;100.00;103515.72;2603243;47;20077;31
2022/01/23 22:46:51;;;;;;;11.60;7.35;;;;;;;5.31;100.00;103519.47;2620839;39;20346;31
2022/01/23 22:49:30;;;;;;;12.02;7.82;;;;;;;5.25;100.00;103518.69;2612208;39;20325;31
2022/01/23 22:52:18;;;;;;;12.00;7.70;;;;;;;5.06;100.00;103520.03;2602815;54;20042;31
2022/01/23 22:54:54;;;;;;;11.95;7.40;;;;;;;5.06;100.00;103522.69;2603156;54;20019;31
2022/01/23 23:05:23;;;;;;;18.70;8.70;;;;;;;4.88;100.00;103522.19;2601954;54;20816;31
2022/01/23 23:13:09;;;;;;;12.50;6.80;;;;;;;4.94;100.00;103523.00;2602513;54;20433;31
2022/01/23 23:15:54;;;;;;;12.27;7.60;;;;;;;4.91;100.00;103524.78;2603059;46;20618;31
2022/01/23 23:21:12;;;;;;;12.45;6.78;;;;;;;4.87;100.00;103522.22;2602142;54;20386;31
2022/01/23 23:23:49;;;;;;;11.18;6.95;;;;;;;4.89;100.00;103515.94;2602624;54;20046;31
2022/01/23 23:26:25;;;;;;;18.13;7.65;;;;;;;5.00;100.00;103517.50;2602607;47;20455;31
2022/01/23 23:29:00;;;;;;;15.02;7.45;;;;;;;5.16;100.00;103521.59;2602663;54;20994;31
2022/01/23 23:34:10;;;;;;;11.15;7.55;;;;;;;5.24;100.00;103519.63;2602241;54;20066;31
2022/01/23 23:36:49;;;;;;;13.23;7.47;;;;;;;5.21;100.00;103517.03;2603171;54;20098;31
2022/01/23 23:44:42;;;;;;;12.65;8.00;;;;;;;5.16;100.00;103513.56;2649314;36;20030;31
2022/01/23 23:47:18;;;;;;;11.50;7.90;;;;;;;5.35;100.00;103518.50;2603127;46;20496;31
2022/01/23 23:57:46;;;;;;;12.93;8.90;;;;;;;5.34;100.00;103503.38;2601886;54;20038;31
